createdAt,value
2022-12-25T00:01:08.554Z,7.29
2022-12-25T00:03:38.076Z,7.28
2022-12-25T00:06:07.662Z,7.29
2022-12-25T00:08:37.585Z,7.31
2022-12-25T00:11:08.312Z,7.32
2022-12-25T00:13:37.206Z,7.34
2022-12-25T00:16:09.327Z,7.33
2022-12-25T00:18:37.844Z,7.34
2022-12-25T00:21:08.116Z,7.33
2022-12-25T00:23:36.960Z,7.31
2022-12-25T00:26:06.605Z,7.33
2022-12-25T00:28:35.897Z,7.33
2022-12-25T00:31:11.246Z,7.33
2022-12-25T00:33:41.859Z,7.35
2022-12-25T00:36:12.234Z,7.36
2022-12-25T00:38:41.732Z,7.41
2022-12-25T00:41:12.964Z,7.43
2022-12-25T00:43:42.076Z,7.41
2022-12-25T00:46:13.910Z,7.43
2022-12-25T00:48:45.253Z,7.42
2022-12-25T00:51:13.785Z,7.49
2022-12-25T00:53:42.474Z,7.56
2022-12-25T00:56:11.148Z,7.53
2022-12-25T00:58:39.639Z,7.53
2022-12-25T01:01:08.426Z,7.49
2022-12-25T01:03:38.581Z,7.47
2022-12-25T01:06:10.941Z,7.45
2022-12-25T01:09:01.179Z,7.45
2022-12-25T01:11:29.453Z,7.39
2022-12-25T01:13:58.047Z,7.39
2022-12-25T01:16:26.859Z,7.43
2022-12-25T01:18:57.610Z,7.43
2022-12-25T01:21:26.180Z,7.48
2022-12-25T01:23:55.404Z,7.51
2022-12-25T01:26:26.206Z,7.52
2022-12-25T01:28:54.937Z,7.51
2022-12-25T01:31:25.060Z,7.56
2022-12-25T01:33:54.081Z,7.54
2022-12-25T01:36:26.228Z,7.57
2022-12-25T01:38:55.495Z,7.58
2022-12-25T01:41:26.269Z,7.58
2022-12-25T01:44:01.312Z,7.58
2022-12-25T01:46:30.390Z,7.57
2022-12-25T01:49:03.146Z,7.56
2022-12-25T01:51:36.911Z,7.56
2022-12-25T01:54:09.876Z,7.55
2022-12-25T01:56:41.003Z,7.55
2022-12-25T01:59:10.654Z,7.64
2022-12-25T02:01:39.377Z,7.64
2022-12-25T02:04:14.273Z,7.66
2022-12-25T02:06:44.346Z,7.63
2022-12-25T02:09:12.874Z,7.63
2022-12-25T02:11:59.485Z,7.64
2022-12-25T02:14:33.013Z,7.65
2022-12-25T02:17:12.421Z,7.63
2022-12-25T02:20:08.845Z,7.60
2022-12-25T02:22:52.786Z,7.60
2022-12-25T02:25:38.675Z,7.75
2022-12-25T02:28:22.733Z,7.82
2022-12-25T02:30:55.354Z,7.86
2022-12-25T02:33:49.170Z,7.88
2022-12-25T02:36:25.596Z,7.90
2022-12-25T02:39:18.133Z,7.92
2022-12-25T02:41:50.156Z,7.93
2022-12-25T02:44:43.481Z,7.93
2022-12-25T02:47:29.887Z,7.90
2022-12-25T02:50:17.394Z,7.88
2022-12-25T02:53:05.487Z,7.87
2022-12-25T02:55:54.960Z,7.91
2022-12-25T02:58:44.631Z,7.86
2022-12-25T03:01:36.224Z,7.82
2022-12-25T03:04:27.070Z,7.86
2022-12-25T03:07:07.275Z,7.84
2022-12-25T03:09:57.060Z,7.84
2022-12-25T03:12:41.647Z,7.81
2022-12-25T03:15:31.157Z,7.82
2022-12-25T03:18:06.942Z,7.81
2022-12-25T03:20:53.890Z,7.81
2022-12-25T03:23:45.180Z,7.82
2022-12-25T03:26:31.373Z,7.80
2022-12-25T03:29:00.059Z,7.81
2022-12-25T03:31:39.897Z,7.81
2022-12-25T03:34:41.548Z,7.86
2022-12-25T03:37:38.859Z,7.85
2022-12-25T03:40:35.031Z,7.88
2022-12-25T03:43:30.543Z,7.85
2022-12-25T03:46:21.564Z,7.84
2022-12-25T03:49:15.165Z,7.89
2022-12-25T03:52:05.232Z,7.90
2022-12-25T03:54:53.486Z,7.91
2022-12-25T03:57:39.443Z,7.92
2022-12-25T04:00:26.723Z,7.93
2022-12-25T04:03:12.863Z,7.94
2022-12-25T04:05:59.163Z,7.95
2022-12-25T04:08:46.554Z,7.93
2022-12-25T04:11:33.172Z,7.91
2022-12-25T04:14:19.280Z,7.89
2022-12-25T04:17:05.219Z,7.89
2022-12-25T04:19:51.313Z,7.90
2022-12-25T04:22:39.695Z,7.89
2022-12-25T04:25:27.887Z,7.87
2022-12-25T04:28:19.908Z,7.83
2022-12-25T04:31:05.844Z,7.86
2022-12-25T04:33:52.128Z,7.83
2022-12-25T04:36:20.976Z,7.84
2022-12-25T04:38:49.515Z,7.82
2022-12-25T04:41:19.754Z,7.86
2022-12-25T04:43:48.245Z,7.83
2022-12-25T04:46:16.833Z,7.82
2022-12-25T04:48:45.529Z,7.84
2022-12-25T04:51:16.104Z,7.84
2022-12-25T04:53:45.382Z,7.80
2022-12-25T04:56:14.306Z,7.78
2022-12-25T04:58:45.577Z,7.74
2022-12-25T05:01:14.923Z,7.72
2022-12-25T05:03:43.791Z,7.71
2022-12-25T05:06:12.795Z,7.74
2022-12-25T05:08:41.414Z,7.72
2022-12-25T05:11:12.236Z,7.72
2022-12-25T05:13:41.886Z,7.75
2022-12-25T05:16:14.832Z,7.75
2022-12-25T05:18:43.936Z,7.72
2022-12-25T05:21:13.094Z,7.74
2022-12-25T05:23:48.237Z,7.74
2022-12-25T05:26:18.492Z,7.73
2022-12-25T05:28:47.125Z,7.76
2022-12-25T05:31:17.630Z,7.75
2022-12-25T05:33:46.396Z,7.76
2022-12-25T05:36:15.585Z,7.77
2022-12-25T05:38:44.449Z,7.80
2022-12-25T05:41:13.126Z,7.81
2022-12-25T05:43:41.700Z,7.84
2022-12-25T05:46:13.101Z,7.85
2022-12-25T05:48:43.087Z,7.90
2022-12-25T05:51:13.925Z,7.92
2022-12-25T05:53:43.592Z,7.95
2022-12-25T05:56:15.835Z,7.95
2022-12-25T05:58:44.453Z,7.97
2022-12-25T06:01:15.300Z,7.98
2022-12-25T06:03:45.477Z,7.99
2022-12-25T06:06:14.450Z,8.00
2022-12-25T06:08:43.131Z,8.03
2022-12-25T06:11:13.685Z,8.01
2022-12-25T06:13:42.650Z,8.05
2022-12-25T06:16:13.373Z,8.02
2022-12-25T06:18:45.472Z,8.02
2022-12-25T06:21:16.699Z,8.08
2022-12-25T06:23:45.633Z,8.12
2022-12-25T06:26:16.167Z,8.09
2022-12-25T06:28:45.320Z,8.10
2022-12-25T06:31:16.335Z,8.11
2022-12-25T06:33:45.081Z,8.09
2022-12-25T06:36:16.989Z,8.08
2022-12-25T06:38:46.243Z,8.14
2022-12-25T06:41:17.942Z,8.12
2022-12-25T06:43:49.187Z,8.19
2022-12-25T06:46:18.502Z,8.21
2022-12-25T06:48:49.355Z,8.23
2022-12-25T06:51:21.866Z,8.25
2022-12-25T06:53:51.997Z,8.22
2022-12-25T06:56:24.142Z,8.25
2022-12-25T06:58:55.155Z,8.24
2022-12-25T07:01:26.538Z,8.27
2022-12-25T07:03:58.816Z,8.30
2022-12-25T07:06:28.735Z,8.30
2022-12-25T07:08:57.037Z,8.32
2022-12-25T07:11:26.263Z,8.33
2022-12-25T07:13:54.950Z,8.36
2022-12-25T07:16:23.812Z,8.35
2022-12-25T07:18:52.301Z,8.39
2022-12-25T07:21:22.056Z,8.43
2022-12-25T07:23:51.880Z,8.44
2022-12-25T07:26:20.920Z,8.48
2022-12-25T07:28:49.754Z,8.47
2022-12-25T07:31:19.693Z,8.47
2022-12-25T07:33:48.425Z,8.50
2022-12-25T07:36:16.935Z,8.47
2022-12-25T07:38:48.856Z,8.52
2022-12-25T07:41:19.126Z,8.56
2022-12-25T07:43:51.067Z,8.61
2022-12-25T07:46:21.135Z,8.63
2022-12-25T07:48:50.191Z,8.64
2022-12-25T07:51:18.702Z,8.67
2022-12-25T07:53:47.600Z,8.70
2022-12-25T07:56:19.661Z,8.69
2022-12-25T07:58:49.000Z,8.70
2022-12-25T08:01:20.201Z,8.74
2022-12-25T08:03:52.625Z,8.73
2022-12-25T08:06:22.707Z,8.77
2022-12-25T08:08:51.173Z,8.80
2022-12-25T08:11:21.071Z,8.84
2022-12-25T08:13:49.407Z,8.85
2022-12-25T08:16:18.199Z,8.89
2022-12-25T08:18:46.786Z,8.86
2022-12-25T08:21:16.333Z,8.94
2022-12-25T08:23:46.884Z,8.94
2022-12-25T08:26:18.155Z,8.97
2022-12-25T08:28:49.348Z,9.00
2022-12-25T08:31:19.637Z,9.00
2022-12-25T08:33:49.660Z,9.02
2022-12-25T08:36:18.647Z,9.11
2022-12-25T08:38:47.542Z,9.15
2022-12-25T08:41:17.151Z,9.23
2022-12-25T08:43:46.253Z,9.35
2022-12-25T08:46:16.553Z,9.48
2022-12-25T08:48:46.275Z,9.56
2022-12-25T08:51:16.679Z,9.59
2022-12-25T08:53:45.755Z,9.62
2022-12-25T08:56:15.860Z,9.64
2022-12-25T08:58:44.899Z,9.66
2022-12-25T09:01:14.207Z,9.73
2022-12-25T09:03:44.310Z,9.74
2022-12-25T09:06:14.986Z,9.79
2022-12-25T09:08:49.008Z,9.80
2022-12-25T09:11:20.018Z,9.81
2022-12-25T09:13:49.424Z,9.91
2022-12-25T09:16:22.935Z,9.99
2022-12-25T09:18:52.807Z,10.11
2022-12-25T09:21:21.318Z,10.21
2022-12-25T09:23:50.031Z,10.31
2022-12-25T09:26:19.851Z,10.37
2022-12-25T09:28:51.987Z,10.44
2022-12-25T09:31:22.263Z,10.56
2022-12-25T09:33:52.313Z,10.62
2022-12-25T09:36:23.226Z,10.73
2022-12-25T09:38:54.182Z,10.80
2022-12-25T09:41:30.665Z,10.85
2022-12-25T09:44:03.919Z,10.96
2022-12-25T09:46:40.190Z,11.04
2022-12-25T09:49:20.085Z,11.16
2022-12-25T09:51:54.238Z,11.33
2022-12-25T09:54:39.823Z,11.44
2022-12-25T09:57:11.777Z,11.60
2022-12-25T09:59:40.812Z,11.75
2022-12-25T10:02:41.326Z,11.88
2022-12-25T10:05:45.462Z,12.02
2022-12-25T10:08:23.151Z,12.11
2022-12-25T10:11:00.932Z,12.24
2022-12-25T10:13:51.708Z,12.40
2022-12-25T10:16:31.130Z,12.54
2022-12-25T10:19:22.916Z,12.63
2022-12-25T10:21:57.740Z,12.72
2022-12-25T10:24:36.109Z,12.84
2022-12-25T10:27:14.347Z,12.93
2022-12-25T10:29:45.487Z,13.08
2022-12-25T10:32:14.001Z,13.21
2022-12-25T10:34:43.574Z,13.40
2022-12-25T10:37:14.043Z,13.58
2022-12-25T10:39:46.604Z,13.72
2022-12-25T10:42:28.108Z,13.75
2022-12-25T10:44:58.566Z,13.79
2022-12-25T10:47:31.405Z,13.84
2022-12-25T10:50:01.281Z,13.89
2022-12-25T10:52:31.049Z,13.95
2022-12-25T10:54:59.638Z,14.05
2022-12-25T10:57:31.016Z,14.09
2022-12-25T11:00:00.416Z,14.20
2022-12-25T11:02:30.214Z,14.27
2022-12-25T11:05:04.488Z,14.40
2022-12-25T11:07:54.237Z,14.41
2022-12-25T11:10:26.052Z,14.43
2022-12-25T11:12:55.053Z,14.50
2022-12-25T11:15:37.719Z,14.40
2022-12-25T11:18:20.010Z,14.33
2022-12-25T11:20:53.162Z,14.14
2022-12-25T11:23:24.787Z,14.13
2022-12-25T11:25:58.218Z,14.14
2022-12-25T11:28:28.042Z,14.18
2022-12-25T11:31:02.850Z,14.14
2022-12-25T11:33:36.482Z,14.25
2022-12-25T11:36:13.744Z,14.28
2022-12-25T11:38:43.893Z,14.41
2022-12-25T11:41:14.983Z,14.55
2022-12-25T11:43:49.495Z,14.63
2022-12-25T11:46:23.070Z,14.75
2022-12-25T11:48:56.208Z,14.97
2022-12-25T11:51:28.747Z,15.12
2022-12-25T11:54:05.013Z,15.09
2022-12-25T11:56:33.899Z,15.23
2022-12-25T11:59:07.525Z,15.38
2022-12-25T12:01:45.024Z,15.63
2022-12-25T12:04:23.118Z,15.74
2022-12-25T12:06:59.708Z,16.22
2022-12-25T12:09:42.065Z,16.20
2022-12-25T12:12:18.923Z,16.62
2022-12-25T12:14:57.845Z,16.76
2022-12-25T12:17:26.328Z,16.31
2022-12-25T12:19:54.901Z,16.18
2022-12-25T12:22:26.596Z,15.84
2022-12-25T12:25:01.444Z,16.25
2022-12-25T12:27:36.085Z,16.27
2022-12-25T12:30:07.152Z,16.40
2022-12-25T12:32:40.206Z,16.70
2022-12-25T12:35:18.979Z,16.44
2022-12-25T12:37:51.717Z,16.33
2022-12-25T12:40:34.768Z,16.54
2022-12-25T12:43:03.939Z,16.82
2022-12-25T12:45:35.801Z,16.68
2022-12-25T12:48:15.607Z,16.50
2022-12-25T12:50:44.419Z,16.64
2022-12-25T12:53:29.387Z,16.73
2022-12-25T12:56:10.582Z,16.92
2022-12-25T12:58:45.090Z,16.84
2022-12-25T13:01:36.886Z,16.92
2022-12-25T13:04:18.607Z,17.31
2022-12-25T13:06:54.076Z,17.51
2022-12-25T13:09:36.982Z,17.73
2022-12-25T13:12:08.696Z,17.13
2022-12-25T13:14:38.214Z,16.88
2022-12-25T13:17:07.874Z,17.05
2022-12-25T13:19:38.236Z,17.08
2022-12-25T13:22:07.714Z,16.97
2022-12-25T13:24:39.658Z,16.90
2022-12-25T13:27:23.830Z,16.90
2022-12-25T13:29:52.408Z,17.26
2022-12-25T13:32:25.405Z,17.20
2022-12-25T13:34:54.925Z,17.13
2022-12-25T13:37:27.518Z,17.18
2022-12-25T13:39:57.838Z,17.28
2022-12-25T13:42:31.106Z,16.85
2022-12-25T13:45:01.640Z,16.86
2022-12-25T13:47:33.491Z,16.69
2022-12-25T13:50:14.382Z,16.58
2022-12-25T13:52:42.980Z,16.56
2022-12-25T13:55:14.623Z,16.56
2022-12-25T13:57:47.115Z,16.51
2022-12-25T14:00:20.653Z,16.23
2022-12-25T14:02:50.055Z,16.17
2022-12-25T14:05:28.147Z,15.91
2022-12-25T14:07:57.660Z,15.75
2022-12-25T14:10:29.884Z,15.58
2022-12-25T14:13:03.604Z,15.61
2022-12-25T14:15:34.159Z,15.28
2022-12-25T14:18:03.261Z,15.27
2022-12-25T14:20:37.192Z,15.09
2022-12-25T14:23:06.209Z,14.85
2022-12-25T14:25:38.361Z,14.82
2022-12-25T14:28:11.337Z,14.75
2022-12-25T14:30:43.506Z,14.56
2022-12-25T14:33:16.346Z,14.42
2022-12-25T14:35:45.549Z,14.55
2022-12-25T14:38:21.763Z,14.31
2022-12-25T14:40:59.768Z,14.24
2022-12-25T14:43:31.475Z,14.10
2022-12-25T14:46:02.697Z,13.89
2022-12-25T14:48:33.214Z,14.02
2022-12-25T14:51:04.297Z,14.02
2022-12-25T14:53:37.885Z,14.23
2022-12-25T14:56:09.496Z,14.28
2022-12-25T14:58:44.367Z,14.25
2022-12-25T15:01:22.464Z,14.07
2022-12-25T15:03:51.239Z,13.80
2022-12-25T15:06:22.427Z,13.78
2022-12-25T15:08:58.571Z,13.58
2022-12-25T15:11:27.329Z,13.36
2022-12-25T15:13:57.513Z,13.27
2022-12-25T15:16:27.934Z,13.12
2022-12-25T15:18:56.994Z,12.98
2022-12-25T15:21:28.347Z,12.94
2022-12-25T15:23:58.633Z,12.77
2022-12-25T15:26:28.622Z,12.75
2022-12-25T15:28:59.113Z,12.68
2022-12-25T15:31:29.904Z,12.51
2022-12-25T15:34:00.638Z,12.61
2022-12-25T15:36:29.616Z,12.75
2022-12-25T15:38:58.818Z,12.92
2022-12-25T15:41:48.557Z,13.05
2022-12-25T15:44:19.563Z,12.97
2022-12-25T15:46:48.363Z,12.86
2022-12-25T15:49:17.754Z,12.79
2022-12-25T15:51:47.136Z,12.79
2022-12-25T15:54:15.651Z,12.62
2022-12-25T15:56:47.157Z,12.56
2022-12-25T15:59:20.303Z,12.45
2022-12-25T16:01:52.333Z,12.33
2022-12-25T16:04:20.920Z,12.28
2022-12-25T16:06:50.077Z,12.21
2022-12-25T16:09:20.944Z,12.13
2022-12-25T16:11:50.595Z,12.01
2022-12-25T16:14:19.479Z,11.98
2022-12-25T16:16:48.128Z,12.14
2022-12-25T16:19:18.107Z,12.41
2022-12-25T16:21:47.095Z,12.58
2022-12-25T16:24:16.167Z,12.66
2022-12-25T16:26:45.001Z,12.63
2022-12-25T16:29:13.723Z,12.56
2022-12-25T16:31:42.448Z,12.52
2022-12-25T16:34:11.390Z,12.39
2022-12-25T16:36:41.591Z,12.36
2022-12-25T16:39:10.173Z,12.44
2022-12-25T16:41:38.699Z,12.50
2022-12-25T16:44:10.074Z,12.70
2022-12-25T16:46:40.817Z,12.59
2022-12-25T16:49:09.686Z,12.58
2022-12-25T16:51:38.312Z,12.55
2022-12-25T16:54:08.422Z,12.50
2022-12-25T16:56:37.158Z,12.43
2022-12-25T16:59:05.668Z,12.28
2022-12-25T17:01:34.341Z,12.24
2022-12-25T17:04:03.342Z,12.04
2022-12-25T17:06:32.114Z,11.88
2022-12-25T17:09:02.816Z,11.68
2022-12-25T17:11:33.153Z,11.62
2022-12-25T17:14:03.688Z,11.53
2022-12-25T17:16:34.384Z,11.46
2022-12-25T17:19:05.199Z,11.42
2022-12-25T17:21:34.277Z,11.26
2022-12-25T17:24:04.485Z,11.25
2022-12-25T17:26:34.740Z,11.16
2022-12-25T17:29:03.329Z,11.03
2022-12-25T17:31:31.861Z,10.94
2022-12-25T17:34:01.863Z,10.89
2022-12-25T17:36:31.031Z,10.89
2022-12-25T17:39:00.112Z,11.05
2022-12-25T17:41:28.985Z,11.40
2022-12-25T17:43:59.113Z,11.54
2022-12-25T17:46:29.671Z,11.68
2022-12-25T17:48:59.955Z,11.79
2022-12-25T17:51:29.958Z,11.97
2022-12-25T17:54:02.931Z,12.23
2022-12-25T17:56:32.302Z,12.54
2022-12-25T17:59:06.531Z,12.56
2022-12-25T18:01:37.602Z,12.74
2022-12-25T18:04:07.198Z,12.77
2022-12-25T18:06:37.190Z,12.81
2022-12-25T18:09:06.553Z,12.67
2022-12-25T18:11:36.789Z,12.80
2022-12-25T18:14:08.482Z,12.78
2022-12-25T18:16:39.681Z,12.86
2022-12-25T18:19:09.192Z,12.91
2022-12-25T18:21:38.289Z,12.89
2022-12-25T18:24:08.304Z,12.83
2022-12-25T18:26:36.907Z,12.72
2022-12-25T18:29:07.627Z,12.59
2022-12-25T18:31:36.976Z,12.52
2022-12-25T18:34:05.546Z,12.39
2022-12-25T18:36:34.073Z,12.28
2022-12-25T18:39:02.641Z,12.44
2022-12-25T18:41:31.274Z,12.48
2022-12-25T18:44:00.968Z,12.51
2022-12-25T18:46:31.305Z,12.44
2022-12-25T18:48:59.832Z,12.24
2022-12-25T18:51:34.887Z,12.09
2022-12-25T18:54:05.337Z,11.89
2022-12-25T18:56:34.001Z,11.72
2022-12-25T18:59:02.514Z,11.44
2022-12-25T19:01:32.610Z,11.26
2022-12-25T19:04:05.442Z,11.07
2022-12-25T19:06:34.586Z,10.90
2022-12-25T19:09:09.042Z,10.81
2022-12-25T19:11:45.605Z,10.69
2022-12-25T19:14:15.957Z,10.64
2022-12-25T19:16:45.826Z,10.44
2022-12-25T19:19:14.537Z,10.23
2022-12-25T19:21:43.299Z,10.11
2022-12-25T19:24:11.838Z,10.10
2022-12-25T19:26:40.378Z,9.99
2022-12-25T19:29:08.953Z,9.94
2022-12-25T19:31:38.278Z,9.86
2022-12-25T19:34:08.759Z,9.78
2022-12-25T19:36:38.694Z,9.77
2022-12-25T19:39:08.157Z,9.69
2022-12-25T19:41:36.707Z,9.69
2022-12-25T19:44:06.355Z,9.71
2022-12-25T19:46:38.291Z,9.64
2022-12-25T19:49:11.706Z,9.57
2022-12-25T19:51:42.040Z,9.49
2022-12-25T19:54:14.336Z,9.40
2022-12-25T19:56:43.849Z,9.39
2022-12-25T19:59:14.449Z,9.31
2022-12-25T20:01:43.583Z,9.21
2022-12-25T20:04:13.636Z,9.16
2022-12-25T20:06:42.670Z,9.08
2022-12-25T20:09:13.839Z,9.06
2022-12-25T20:11:43.946Z,8.98
2022-12-25T20:14:14.067Z,8.91
2022-12-25T20:16:43.440Z,8.72
2022-12-25T20:19:14.250Z,8.59
2022-12-25T20:21:43.045Z,8.59
2022-12-25T20:24:11.613Z,8.46
2022-12-25T20:26:40.417Z,8.47
2022-12-25T20:29:09.032Z,8.40
2022-12-25T20:31:37.679Z,8.34
2022-12-25T20:34:10.160Z,8.23
2022-12-25T20:36:40.186Z,8.24
2022-12-25T20:39:12.181Z,8.23
2022-12-25T20:41:41.321Z,8.24
2022-12-25T20:44:10.775Z,8.22
2022-12-25T20:46:39.347Z,8.17
2022-12-25T20:49:08.127Z,8.17
2022-12-25T20:51:36.800Z,8.15
2022-12-25T20:54:09.124Z,8.21
2022-12-25T20:56:38.214Z,8.30
2022-12-25T20:59:07.049Z,8.24
2022-12-25T21:01:49.767Z,8.31
2022-12-25T21:04:18.733Z,8.31
2022-12-25T21:06:49.319Z,8.21
2022-12-25T21:09:19.658Z,8.18
2022-12-25T21:11:53.518Z,8.13
2022-12-25T21:14:26.144Z,8.03
2022-12-25T21:16:59.076Z,8.08
2022-12-25T21:19:28.871Z,7.99
2022-12-25T21:21:58.457Z,7.82
2022-12-25T21:24:32.753Z,7.79
2022-12-25T21:27:06.381Z,7.84
2022-12-25T21:29:35.021Z,7.81
2022-12-25T21:32:20.929Z,7.86
2022-12-25T21:34:52.411Z,8.03
2022-12-25T21:37:20.838Z,8.13
2022-12-25T21:39:51.484Z,8.25
2022-12-25T21:42:20.141Z,8.32
2022-12-25T21:44:49.427Z,8.34
2022-12-25T21:47:18.045Z,8.36
2022-12-25T21:50:03.945Z,8.43
2022-12-25T21:52:32.679Z,8.39
2022-12-25T21:55:02.513Z,8.41
2022-12-25T21:57:30.955Z,8.38
2022-12-25T21:59:59.492Z,8.16
2022-12-25T22:02:28.200Z,8.08
2022-12-25T22:04:57.077Z,8.15
2022-12-25T22:07:24.883Z,8.19
2022-12-25T22:09:53.357Z,8.22
2022-12-25T22:12:40.533Z,8.21
2022-12-25T22:15:10.732Z,8.27
2022-12-25T22:17:58.393Z,8.27
2022-12-25T22:20:30.044Z,8.27
2022-12-25T22:22:58.667Z,8.23
2022-12-25T22:25:27.780Z,8.20
2022-12-25T22:27:58.354Z,8.19
2022-12-25T22:30:29.250Z,8.22
2022-12-25T22:32:58.266Z,8.19
2022-12-25T22:35:26.688Z,8.22
2022-12-25T22:37:55.906Z,8.26
2022-12-25T22:40:24.580Z,8.27
2022-12-25T22:42:54.616Z,8.34
2022-12-25T22:45:24.711Z,8.29
2022-12-25T22:47:53.278Z,8.25
2022-12-25T22:50:21.897Z,8.24
2022-12-25T22:52:50.560Z,8.21
2022-12-25T22:55:20.169Z,8.26
2022-12-25T22:57:49.339Z,8.28
2022-12-25T23:00:18.003Z,8.34
2022-12-25T23:02:48.117Z,8.36
2022-12-25T23:05:16.916Z,8.39
2022-12-25T23:07:45.750Z,8.40
2022-12-25T23:10:14.192Z,8.42
2022-12-25T23:13:00.398Z,8.47
2022-12-25T23:15:29.023Z,8.49
2022-12-25T23:18:16.467Z,8.49
2022-12-25T23:21:02.862Z,8.52
2022-12-25T23:23:49.039Z,8.60
2022-12-25T23:26:18.646Z,8.62
2022-12-25T23:29:04.428Z,8.69
2022-12-25T23:31:35.156Z,8.66
2022-12-25T23:34:05.792Z,8.68
2022-12-25T23:36:35.077Z,8.73
2022-12-25T23:39:09.721Z,8.64
2022-12-25T23:41:39.705Z,8.61
2022-12-25T23:44:09.584Z,8.58
2022-12-25T23:46:38.475Z,8.53
2022-12-25T23:49:08.998Z,8.49
2022-12-25T23:51:38.311Z,8.46
2022-12-25T23:54:07.814Z,8.40
2022-12-25T23:56:36.651Z,8.36
2022-12-25T23:59:06.054Z,8.30
